Time;durP1;ratioP1;P1;durP2;ratioP2;P2;SDS_P1;SDS_P2;PMS_P1;PMS_P2;Temp;Humidity;BMP_temperature;BMP_pressure;BME280_temperature;BME280_humidity;BME280_pressure;Samples;Min_cycle;Max_cycle;Signal;HPM_P1;HPM_P2
2021/05/04 00:01:32;;;;;;;13.27;12.47;;;12.90;82.10;;;;;;4792751;29;20473;-72
2021/05/04 00:03:59;;;;;;;13.10;12.20;;;13.00;82.30;;;;;;4799521;29;20480;-72
2021/05/04 00:06:26;;;;;;;14.53;13.47;;;12.90;82.50;;;;;;4792722;29;20480;-72
2021/05/04 00:08:53;;;;;;;13.20;12.20;;;13.00;82.30;;;;;;4796441;29;20928;-73
2021/05/04 00:11:19;;;;;;;13.40;12.50;;;13.00;82.10;;;;;;4791011;29;20565;-72
2021/05/04 00:13:46;;;;;;;13.53;12.50;;;12.90;81.50;;;;;;4792969;29;20477;-72
2021/05/04 00:16:12;;;;;;;13.50;12.70;;;13.00;81.40;;;;;;4796622;29;21026;-72
2021/05/04 00:18:40;;;;;;;13.40;12.40;;;13.00;81.50;;;;;;4794907;29;20500;-72
2021/05/04 00:21:06;;;;;;;13.03;12.33;;;13.00;81.30;;;;;;4792707;29;20475;-72
2021/05/04 00:23:32;;;;;;;13.63;12.83;;;13.00;81.10;;;;;;4796756;29;20476;-72
2021/05/04 00:25:59;;;;;;;13.50;12.80;;;13.00;81.10;;;;;;4790110;29;20471;-72
2021/05/04 00:28:25;;;;;;;13.63;12.63;;;13.00;80.80;;;;;;4795137;29;20475;-72
2021/05/04 00:30:52;;;;;;;13.47;12.87;;;13.10;80.70;;;;;;4791395;29;20505;-70
2021/05/04 00:33:19;;;;;;;14.20;13.40;;;13.00;81.00;;;;;;4794329;29;20475;-72
2021/05/04 00:35:47;;;;;;;13.97;13.27;;;13.00;80.50;;;;;;4795056;29;20467;-71
2021/05/04 00:38:14;;;;;;;14.00;13.27;;;13.00;80.90;;;;;;4797009;29;20502;-71
2021/05/04 00:40:40;;;;;;;13.70;13.00;;;13.00;81.20;;;;;;4789295;29;20530;-72
2021/05/04 00:43:07;;;;;;;13.10;12.40;;;13.00;81.50;;;;;;4790744;29;20937;-72
2021/05/04 00:45:33;;;;;;;13.10;12.50;;;13.10;81.40;;;;;;4795476;29;20475;-72
2021/05/04 00:47:59;;;;;;;14.40;13.50;;;13.00;80.70;;;;;;4793220;29;20468;-71
2021/05/04 00:50:25;;;;;;;14.90;13.47;;;13.00;80.70;;;;;;4796157;29;20487;-72
2021/05/04 00:52:53;;;;;;;13.37;12.73;;;13.10;80.70;;;;;;4796134;29;20829;-72
2021/05/04 00:55:21;;;;;;;13.40;12.80;;;13.10;80.50;;;;;;4795033;29;20467;-72
2021/05/04 00:57:49;;;;;;;14.13;13.50;;;13.10;80.60;;;;;;4794271;29;20467;-71
2021/05/04 01:00:17;;;;;;;14.03;13.30;;;13.10;80.60;;;;;;4792634;29;20559;-72
2021/05/04 01:02:43;;;;;;;13.47;12.87;;;13.10;80.80;;;;;;4794764;29;20514;-72
2021/05/04 01:05:11;;;;;;;14.10;13.07;;;13.10;80.30;;;;;;4794640;29;20851;-71
2021/05/04 01:07:37;;;;;;;13.53;12.83;;;13.10;80.30;;;;;;4795268;29;20976;-72
2021/05/04 01:10:06;;;;;;;13.73;12.90;;;13.10;80.10;;;;;;4793823;29;20478;-71
2021/05/04 01:12:34;;;;;;;13.93;13.00;;;13.10;80.20;;;;;;4791149;29;20476;-71
2021/05/04 01:15:00;;;;;;;13.90;13.00;;;13.10;79.80;;;;;;4794770;29;20495;-71
2021/05/04 01:17:30;;;;;;;15.23;13.90;;;13.10;79.70;;;;;;4793444;29;20526;-73
2021/05/04 01:19:56;;;;;;;13.47;12.57;;;13.10;80.10;;;;;;4793931;29;20499;-72
2021/05/04 01:22:24;;;;;;;13.60;12.90;;;13.10;78.90;;;;;;4795036;29;20475;-71
2021/05/04 01:24:50;;;;;;;13.40;12.80;;;13.20;78.50;;;;;;4792348;29;20976;-72
2021/05/04 01:27:19;;;;;;;13.30;12.70;;;13.20;78.10;;;;;;4789745;29;20483;-71
2021/05/04 01:29:45;;;;;;;12.97;12.20;;;13.20;77.00;;;;;;4799549;29;20483;-71
2021/05/04 01:32:14;;;;;;;13.57;12.70;;;13.20;77.00;;;;;;4795291;29;20495;-72
2021/05/04 01:34:41;;;;;;;13.47;12.87;;;13.20;77.00;;;;;;4790234;29;20494;-71
2021/05/04 01:37:08;;;;;;;15.33;14.20;;;13.20;75.50;;;;;;4791569;29;20915;-72
2021/05/04 01:39:43;;;;;;;14.17;13.17;;;13.30;73.80;;;;;;4797367;29;20536;-72
2021/05/04 01:42:10;;;;;;;13.50;12.90;;;13.30;75.30;;;;;;4797378;29;21206;-72
2021/05/04 01:44:37;;;;;;;20.93;13.83;;;13.00;77.30;;;;;;4791686;29;20479;-73
2021/05/04 01:47:05;;;;;;;15.23;13.33;;;12.70;79.20;;;;;;4796738;29;20480;-72
2021/05/04 01:49:31;;;;;;;29.97;19.53;;;12.20;85.70;;;;;;4792307;29;20526;-75
2021/05/04 01:51:58;;;;;;;20.53;19.20;;;11.40;92.70;;;;;;4792020;29;20470;-72
2021/05/04 01:54:25;;;;;;;19.00;18.00;;;11.10;91.90;;;;;;4794106;29;20472;-73
2021/05/04 01:56:55;;;;;;;20.60;19.20;;;11.00;93.30;;;;;;4794684;29;20481;-71
2021/05/04 01:59:22;;;;;;;22.13;20.83;;;10.80;96.00;;;;;;4793333;29;20502;-71
2021/05/04 02:01:48;;;;;;;21.30;20.00;;;10.50;98.90;;;;;;4791804;29;20663;-72
2021/05/04 02:04:15;;;;;;;21.00;19.70;;;10.30;99.60;;;;;;4793371;29;20471;-73
2021/05/04 02:06:41;;;;;;;30.33;27.60;;;10.10;99.90;;;;;;4793257;29;20954;-73
2021/05/04 02:09:09;;;;;;;30.33;28.03;;;9.90;99.90;;;;;;4793328;29;20476;-72
2021/05/04 02:11:36;;;;;;;30.03;27.73;;;9.80;99.90;;;;;;4794340;29;20475;-75
2021/05/04 02:14:04;;;;;;;30.90;28.50;;;9.50;99.90;;;;;;4794492;29;20487;-75
2021/05/04 02:16:30;;;;;;;30.57;27.83;;;9.30;99.90;;;;;;4790465;29;20598;-73
2021/05/04 02:18:57;;;;;;;30.20;27.80;;;9.10;99.90;;;;;;4793529;29;20528;-74
2021/05/04 02:21:24;;;;;;;32.70;30.10;;;9.00;99.90;;;;;;4790502;29;20604;-73
2021/05/04 02:23:52;;;;;;;32.20;29.50;;;8.80;99.90;;;;;;4794948;29;20527;-73
2021/05/04 02:26:19;;;;;;;33.20;30.50;;;8.70;99.90;;;;;;4792982;29;20911;-73
2021/05/04 02:28:46;;;;;;;30.87;28.40;;;8.60;99.90;;;;;;4792640;29;20969;-75
2021/05/04 02:31:14;;;;;;;31.40;29.00;;;8.60;99.90;;;;;;4795344;29;20490;-74
2021/05/04 02:33:41;;;;;;;29.80;27.50;;;8.50;99.90;;;;;;4794844;29;20469;-74
2021/05/04 02:36:09;;;;;;;28.10;25.90;;;8.40;99.90;;;;;;4793592;29;20502;-74
2021/05/04 02:38:36;;;;;;;29.13;26.83;;;8.40;99.90;;;;;;4789257;29;20526;-74
2021/05/04 02:41:05;;;;;;;27.47;25.33;;;8.30;99.90;;;;;;4795881;29;20982;-74
2021/05/04 02:43:32;;;;;;;27.53;25.43;;;8.20;99.90;;;;;;4798409;29;20879;-73
2021/05/04 02:46:00;;;;;;;27.27;25.27;;;8.10;99.90;;;;;;4796654;29;20467;-76
2021/05/04 02:48:28;;;;;;;26.90;24.90;;;8.00;99.90;;;;;;4795221;29;20527;-74
2021/05/04 02:50:55;;;;;;;26.13;24.20;;;8.00;99.90;;;;;;4798441;29;20494;-74
2021/05/04 02:53:22;;;;;;;25.90;24.00;;;8.00;99.90;;;;;;4798727;29;20481;-75
2021/05/04 02:55:49;;;;;;;24.70;22.90;;;7.90;99.90;;;;;;4799591;29;20463;-75
2021/05/04 02:58:15;;;;;;;25.00;23.30;;;7.90;99.90;;;;;;4791456;29;20507;-73
2021/05/04 03:00:42;;;;;;;25.57;23.77;;;7.90;99.90;;;;;;4800290;29;20492;-74
2021/05/04 03:03:10;;;;;;;24.33;22.63;;;7.90;99.90;;;;;;4795845;29;21003;-73
2021/05/04 03:05:37;;;;;;;25.87;24.00;;;7.90;99.90;;;;;;4798394;29;20568;-72
2021/05/04 03:08:04;;;;;;;24.80;23.10;;;7.90;99.90;;;;;;4802054;29;21135;-75
2021/05/04 03:10:30;;;;;;;24.50;22.80;;;7.90;99.90;;;;;;4798402;29;20475;-75
2021/05/04 03:12:57;;;;;;;23.23;21.63;;;7.80;99.90;;;;;;4793665;29;20471;-73
2021/05/04 03:15:23;;;;;;;23.40;21.80;;;7.80;99.90;;;;;;4795154;29;20511;-74
2021/05/04 03:17:50;;;;;;;23.63;22.03;;;7.80;99.90;;;;;;4792242;29;20480;-74
2021/05/04 03:20:16;;;;;;;22.90;21.30;;;7.70;99.90;;;;;;4796970;29;20538;-74
2021/05/04 03:22:44;;;;;;;23.50;21.90;;;7.80;99.90;;;;;;4796979;29;20495;-73
2021/05/04 03:25:11;;;;;;;22.30;20.90;;;7.80;99.90;;;;;;4794187;29;20472;-73
2021/05/04 03:27:38;;;;;;;20.90;19.60;;;7.80;99.90;;;;;;4798132;29;20459;-73
2021/05/04 03:30:07;;;;;;;19.80;18.60;;;7.80;99.90;;;;;;4796228;29;20477;-74
2021/05/04 03:32:33;;;;;;;20.13;18.93;;;7.80;99.90;;;;;;4801105;29;20469;-73
2021/05/04 03:35:00;;;;;;;19.30;18.20;;;7.90;99.90;;;;;;4795388;29;20834;-74
2021/05/04 03:37:27;;;;;;;19.90;18.70;;;7.90;99.90;;;;;;4795202;29;20476;-74
2021/05/04 03:39:54;;;;;;;19.97;18.77;;;7.90;99.90;;;;;;4795505;29;21039;-73
2021/05/04 03:42:21;;;;;;;20.40;19.20;;;7.90;99.90;;;;;;4796766;29;20960;-74
2021/05/04 03:44:47;;;;;;;22.13;20.63;;;7.90;99.90;;;;;;4795305;29;20464;-74
2021/05/04 03:47:13;;;;;;;21.40;20.00;;;7.90;99.90;;;;;;4794073;29;20479;-73
2021/05/04 03:49:39;;;;;;;21.50;20.10;;;7.90;99.90;;;;;;4793540;29;20562;-73
2021/05/04 03:52:06;;;;;;;21.53;20.00;;;7.90;99.90;;;;;;4796509;29;20467;-73
2021/05/04 03:54:32;;;;;;;21.93;20.50;;;8.00;99.90;;;;;;4795047;29;20464;-74
2021/05/04 03:57:00;;;;;;;20.77;19.47;;;8.00;99.90;;;;;;4794853;29;20484;-74
2021/05/04 03:59:26;;;;;;;19.70;18.50;;;8.00;99.90;;;;;;4797332;29;20508;-73
2021/05/04 04:01:52;;;;;;;18.97;17.83;;;8.00;99.90;;;;;;4792339;29;20501;-74
2021/05/04 04:04:18;;;;;;;20.23;18.93;;;8.10;99.90;;;;;;4793829;29;20991;-74
2021/05/04 04:06:45;;;;;;;19.40;18.10;;;8.20;99.90;;;;;;4794342;29;20523;-72
2021/05/04 04:09:11;;;;;;;19.23;18.13;;;8.20;99.90;;;;;;4796539;29;20532;-73
2021/05/04 04:11:38;;;;;;;20.37;18.97;;;8.20;99.90;;;;;;4795126;29;20836;-72
2021/05/04 04:14:05;;;;;;;19.10;18.00;;;8.30;99.90;;;;;;4791467;29;20476;-72
2021/05/04 04:16:32;;;;;;;19.87;18.50;;;8.40;99.90;;;;;;4792070;29;20500;-73
2021/05/04 04:18:59;;;;;;;19.17;17.97;;;8.40;99.90;;;;;;4794348;29;20509;-73
2021/05/04 04:21:25;;;;;;;19.93;18.60;;;8.40;99.90;;;;;;4789574;29;20474;-72
2021/05/04 04:23:52;;;;;;;19.17;18.07;;;8.50;99.90;;;;;;4797085;29;20477;-72
2021/05/04 04:26:18;;;;;;;18.20;17.07;;;8.50;99.90;;;;;;4796549;29;20476;-72
2021/05/04 04:28:44;;;;;;;18.33;17.30;;;8.60;99.90;;;;;;4794048;29;20471;-72
2021/05/04 04:31:12;;;;;;;18.40;17.40;;;8.60;99.90;;;;;;4798777;29;20474;-72
2021/05/04 04:33:38;;;;;;;18.00;17.03;;;8.60;99.90;;;;;;4789330;29;20471;-72
2021/05/04 04:36:05;;;;;;;18.10;17.10;;;8.70;99.90;;;;;;4793754;29;20833;-72
2021/05/04 04:38:32;;;;;;;17.53;16.63;;;8.70;99.90;;;;;;4793284;29;20503;-73
2021/05/04 04:40:58;;;;;;;17.40;16.40;;;8.80;99.90;;;;;;4797390;29;20503;-72
2021/05/04 04:43:25;;;;;;;16.37;15.20;;;8.80;99.90;;;;;;4797015;29;20548;-73
2021/05/04 04:45:51;;;;;;;15.87;15.03;;;8.80;99.90;;;;;;4796398;29;20474;-73
2021/05/04 04:48:18;;;;;;;15.97;15.07;;;8.90;99.90;;;;;;4795957;29;20917;-74
2021/05/04 04:50:46;;;;;;;16.57;15.67;;;8.90;99.90;;;;;;4796880;29;20471;-74
2021/05/04 04:53:13;;;;;;;15.50;14.70;;;8.90;99.90;;;;;;4796110;29;20530;-74
2021/05/04 04:55:39;;;;;;;15.33;14.43;;;9.00;99.90;;;;;;4791496;29;20522;-73
2021/05/04 04:58:05;;;;;;;15.67;14.90;;;9.00;99.90;;;;;;4788786;29;20486;-73
2021/05/04 05:00:32;;;;;;;15.40;14.43;;;9.00;99.90;;;;;;4796180;29;20509;-74
2021/05/04 05:02:58;;;;;;;16.53;15.63;;;9.00;99.90;;;;;;4800414;29;20477;-73
2021/05/04 05:05:27;;;;;;;15.20;14.30;;;9.10;99.90;;;;;;4795413;29;20527;-74
2021/05/04 05:07:54;;;;;;;14.97;14.27;;;9.10;99.90;;;;;;4792809;29;20977;-74
2021/05/04 05:10:20;;;;;;;15.50;14.70;;;9.10;99.90;;;;;;4789740;29;20489;-74
2021/05/04 05:12:47;;;;;;;15.50;14.70;;;9.20;99.90;;;;;;4789983;29;20530;-72
2021/05/04 05:15:14;;;;;;;16.10;15.10;;;9.20;99.90;;;;;;4802647;29;20986;-72
2021/05/04 05:17:41;;;;;;;16.13;15.13;;;9.20;99.90;;;;;;4797322;29;20531;-73
2021/05/04 05:20:09;;;;;;;15.50;14.80;;;9.20;99.90;;;;;;4794532;29;20873;-75
2021/05/04 05:22:36;;;;;;;15.53;14.53;;;9.20;99.90;;;;;;4788635;29;20989;-73
2021/05/04 05:25:04;;;;;;;15.90;15.00;;;9.30;99.90;;;;;;4797283;29;20552;-74
2021/05/04 05:27:31;;;;;;;15.03;14.27;;;9.30;99.90;;;;;;4791456;29;21150;-74
2021/05/04 05:29:57;;;;;;;16.13;15.33;;;9.30;99.90;;;;;;4792857;29;20515;-73
2021/05/04 05:32:24;;;;;;;16.20;15.30;;;9.30;99.90;;;;;;4792998;29;20479;-75
2021/05/04 05:34:50;;;;;;;15.37;14.57;;;9.40;99.90;;;;;;4785185;29;20483;-74
2021/05/04 05:37:17;;;;;;;16.30;15.50;;;9.50;99.90;;;;;;4797172;29;20470;-75
2021/05/04 05:39:44;;;;;;;15.73;14.93;;;9.40;99.90;;;;;;4795157;29;20869;-74
2021/05/04 05:42:13;;;;;;;15.40;14.60;;;9.50;99.90;;;;;;4790992;29;20503;-75
2021/05/04 05:44:39;;;;;;;15.77;14.97;;;9.50;99.90;;;;;;4792380;29;20910;-75
2021/05/04 05:47:06;;;;;;;15.07;14.30;;;9.60;99.90;;;;;;4794585;29;20493;-73
2021/05/04 05:49:32;;;;;;;14.97;14.27;;;9.70;99.90;;;;;;4799395;29;20475;-74
2021/05/04 05:52:01;;;;;;;15.53;14.73;;;9.70;99.90;;;;;;4793800;29;20478;-74
2021/05/04 05:54:30;;;;;;;14.93;14.20;;;9.80;99.90;;;;;;4794299;29;20471;-75
2021/05/04 05:56:59;;;;;;;15.63;14.83;;;10.00;99.90;;;;;;4793471;29;20474;-74
2021/05/04 05:59:25;;;;;;;16.37;15.27;;;10.10;99.90;;;;;;4790982;29;20585;-75
2021/05/04 06:01:52;;;;;;;15.20;14.40;;;10.20;99.90;;;;;;4790251;29;20496;-74
2021/05/04 06:04:18;;;;;;;14.97;14.17;;;10.10;99.90;;;;;;4796186;29;20471;-73
2021/05/04 06:06:45;;;;;;;14.90;14.00;;;10.00;99.90;;;;;;4794426;29;20884;-76
2021/05/04 06:09:11;;;;;;;15.87;14.77;;;10.00;99.90;;;;;;4797122;29;20478;-76
2021/05/04 06:11:38;;;;;;;16.37;15.37;;;10.10;99.90;;;;;;4794777;29;20474;-74
2021/05/04 06:14:06;;;;;;;15.87;15.07;;;10.40;99.90;;;;;;4791231;29;20486;-74
2021/05/04 06:16:33;;;;;;;16.90;15.27;;;10.60;99.90;;;;;;4798541;29;20560;-75
2021/05/04 06:19:00;;;;;;;15.57;14.77;;;10.70;99.90;;;;;;4801219;29;20494;-75
2021/05/04 06:21:28;;;;;;;16.23;14.90;;;10.60;99.90;;;;;;4797520;29;20479;-73
2021/05/04 06:23:54;;;;;;;15.87;15.00;;;10.40;99.90;;;;;;4791503;29;20489;-75
2021/05/04 06:26:22;;;;;;;16.13;14.50;;;10.20;99.90;;;;;;4794859;29;20991;-75
2021/05/04 06:28:49;;;;;;;16.33;15.00;;;10.00;99.90;;;;;;4798068;29;20532;-74
2021/05/04 06:31:18;;;;;;;15.57;14.87;;;10.00;99.90;;;;;;4794378;29;20609;-74
2021/05/04 06:33:45;;;;;;;15.80;14.80;;;10.10;99.90;;;;;;4793430;29;21290;-74
2021/05/04 06:36:12;;;;;;;14.87;13.83;;;10.20;99.90;;;;;;4793523;29;20484;-74
2021/05/04 06:38:39;;;;;;;15.30;14.30;;;10.30;99.90;;;;;;4793766;29;20478;-73
2021/05/04 06:41:05;;;;;;;14.50;13.80;;;10.50;99.90;;;;;;4794894;29;20563;-76
2021/05/04 06:43:32;;;;;;;15.47;14.57;;;10.50;99.90;;;;;;4794080;29;20474;-74
2021/05/04 06:45:59;;;;;;;14.83;14.13;;;10.40;99.90;;;;;;4793184;29;20486;-76
2021/05/04 06:48:26;;;;;;;15.13;13.97;;;10.50;99.90;;;;;;4795735;29;20478;-74
2021/05/04 06:50:53;;;;;;;14.30;13.60;;;10.70;99.90;;;;;;4791825;29;21001;-75
2021/05/04 06:53:19;;;;;;;14.90;14.20;;;10.70;99.90;;;;;;4796419;29;20976;-76
2021/05/04 06:55:47;;;;;;;14.40;13.70;;;10.70;99.90;;;;;;4797324;29;20473;-73
2021/05/04 06:58:13;;;;;;;14.80;14.00;;;10.70;99.90;;;;;;4797142;29;20488;-74
2021/05/04 07:00:40;;;;;;;14.40;13.70;;;10.80;99.90;;;;;;4792385;29;20583;-73
2021/05/04 07:03:07;;;;;;;13.93;13.00;;;10.80;99.90;;;;;;4797980;29;20978;-75
2021/05/04 07:05:34;;;;;;;15.33;14.33;;;10.80;99.90;;;;;;4798303;29;20478;-76
2021/05/04 07:08:01;;;;;;;14.77;14.07;;;10.80;99.90;;;;;;4800918;29;20477;-74
2021/05/04 07:10:27;;;;;;;14.60;13.80;;;10.70;99.90;;;;;;4795739;29;20518;-74
2021/05/04 07:12:54;;;;;;;15.13;14.43;;;10.40;99.90;;;;;;4797536;29;20476;-75
2021/05/04 07:15:20;;;;;;;15.80;14.20;;;10.20;99.90;;;;;;4794801;29;20489;-75
2021/05/04 07:17:46;;;;;;;15.20;13.87;;;10.30;99.90;;;;;;4797539;29;20512;-73
2021/05/04 07:20:18;;;;;;;14.47;13.77;;;10.30;99.90;;;;;;4798437;29;20547;-75
2021/05/04 07:22:45;;;;;;;14.70;14.00;;;10.40;99.90;;;;;;4798747;29;20560;-74
2021/05/04 07:25:12;;;;;;;15.20;14.20;;;10.20;99.90;;;;;;4791646;29;21326;-76
2021/05/04 07:27:38;;;;;;;15.77;14.77;;;10.30;99.90;;;;;;4787937;29;20473;-73
2021/05/04 07:30:06;;;;;;;18.83;17.70;;;10.20;99.90;;;;;;4790238;29;20496;-74
2021/05/04 07:32:32;;;;;;;18.37;17.07;;;10.10;99.90;;;;;;4791969;29;20479;-72
2021/05/04 07:34:59;;;;;;;18.23;17.23;;;9.80;99.90;;;;;;4791567;29;20847;-73
2021/05/04 07:37:25;;;;;;;17.00;16.10;;;9.70;99.90;;;;;;4786611;29;20991;-73
2021/05/04 07:39:52;;;;;;;18.93;17.83;;;9.70;99.90;;;;;;4792621;29;20498;-72
2021/05/04 07:42:18;;;;;;;25.27;23.37;;;9.70;99.90;;;;;;4792912;29;20498;-73
2021/05/04 07:44:45;;;;;;;24.30;22.50;;;9.40;99.90;;;;;;4792365;29;20496;-73
2021/05/04 07:47:12;;;;;;;23.50;21.70;;;9.30;99.90;;;;;;4795296;29;20467;-73
2021/05/04 07:49:43;;;;;;;22.90;21.27;;;9.30;99.90;;;;;;4791489;29;20483;-75
2021/05/04 07:52:09;;;;;;;23.03;21.43;;;9.40;99.90;;;;;;4787584;29;20477;-74
2021/05/04 07:54:36;;;;;;;22.73;21.20;;;9.60;99.90;;;;;;4789816;29;20479;-73
2021/05/04 07:57:04;;;;;;;23.10;21.20;;;9.70;99.90;;;;;;4791720;29;20471;-74
2021/05/04 07:59:30;;;;;;;20.93;19.43;;;9.70;99.90;;;;;;4794426;29;20498;-74
2021/05/04 08:01:59;;;;;;;20.47;19.17;;;9.70;99.90;;;;;;4793467;29;20476;-75
2021/05/04 08:04:26;;;;;;;20.20;18.90;;;9.80;99.90;;;;;;4791405;29;20482;-74
2021/05/04 08:06:52;;;;;;;19.83;18.50;;;9.90;99.90;;;;;;4789514;29;20566;-75
2021/05/04 08:09:18;;;;;;;20.40;18.33;;;10.00;99.90;;;;;;4792953;29;20479;-76
2021/05/04 08:11:45;;;;;;;20.30;19.00;;;10.20;99.90;;;;;;4790182;29;20487;-74
2021/05/04 08:14:13;;;;;;;18.43;17.20;;;10.40;99.90;;;;;;4792522;29;21058;-75
2021/05/04 08:16:39;;;;;;;18.83;17.60;;;10.60;99.90;;;;;;4789666;29;21371;-74
2021/05/04 08:19:06;;;;;;;19.50;17.90;;;10.60;99.90;;;;;;4791405;29;20539;-75
2021/05/04 08:21:34;;;;;;;18.70;17.47;;;10.80;99.90;;;;;;4790510;29;20476;-75
2021/05/04 08:24:01;;;;;;;19.07;17.70;;;10.80;99.90;;;;;;4793287;29;20487;-74
2021/05/04 08:26:28;;;;;;;18.90;17.40;;;10.90;99.90;;;;;;4796496;29;21243;-73
2021/05/04 08:28:54;;;;;;;18.40;17.40;;;11.20;99.90;;;;;;4790952;29;20482;-74
2021/05/04 08:31:22;;;;;;;18.67;17.50;;;11.20;99.90;;;;;;4789808;29;20480;-73
2021/05/04 08:33:48;;;;;;;18.90;17.80;;;11.40;99.90;;;;;;4792332;29;20476;-75
2021/05/04 08:36:14;;;;;;;18.50;17.50;;;11.40;99.90;;;;;;4795180;29;21182;-74
2021/05/04 08:38:41;;;;;;;19.67;18.17;;;11.30;99.90;;;;;;4791438;29;20478;-74
2021/05/04 08:41:08;;;;;;;19.67;18.33;;;11.30;99.90;;;;;;4793262;29;20509;-74
2021/05/04 08:43:35;;;;;;;18.43;17.33;;;11.40;99.90;;;;;;4790274;29;20489;-73
2021/05/04 08:46:03;;;;;;;16.63;15.80;;;11.30;99.90;;;;;;4790495;29;20540;-74
2021/05/04 08:48:31;;;;;;;16.50;15.70;;;11.20;99.90;;;;;;4789707;29;20487;-74
2021/05/04 08:50:59;;;;;;;16.47;15.57;;;11.10;99.90;;;;;;4792854;29;20530;-74
2021/05/04 08:53:25;;;;;;;17.43;16.33;;;11.20;99.90;;;;;;4787645;29;20570;-75
2021/05/04 08:55:51;;;;;;;15.60;14.80;;;11.40;99.90;;;;;;4785448;29;20577;-74
2021/05/04 08:58:20;;;;;;;16.60;15.40;;;11.50;99.90;;;;;;4791840;29;20473;-75
2021/05/04 09:00:48;;;;;;;15.53;14.67;;;11.50;99.90;;;;;;4790231;29;20540;-75
2021/05/04 09:03:17;;;;;;;20.47;19.07;;;11.70;99.90;;;;;;4790927;29;21110;-74
2021/05/04 09:05:50;;;;;;;22.47;21.07;;;11.60;99.90;;;;;;4787309;29;20585;-73
2021/05/04 09:08:40;;;;;;;22.47;21.10;;;11.10;99.90;;;;;;4793543;29;20567;-73
2021/05/04 09:11:24;;;;;;;24.40;22.13;;;10.60;99.90;;;;;;4790235;29;20835;-72
2021/05/04 09:13:56;;;;;;;21.80;20.30;;;10.40;99.90;;;;;;4787485;29;20484;-73
2021/05/04 09:16:29;;;;;;;22.40;21.00;;;10.40;99.90;;;;;;4789420;29;20500;-74
2021/05/04 09:21:48;;;;;;;22.00;20.40;;;10.50;99.90;;;;;;4786535;29;20846;-73
2021/05/04 09:24:20;;;;;;;21.50;20.00;;;10.40;99.90;;;;;;4788458;29;21196;-77
2021/05/04 09:26:47;;;;;;;19.77;18.53;;;10.00;99.90;;;;;;4785450;29;21112;-75
2021/05/04 09:29:14;;;;;;;19.00;17.90;;;9.90;99.90;;;;;;4794063;29;20911;-74
2021/05/04 09:31:42;;;;;;;16.50;15.70;;;9.90;99.90;;;;;;4789448;29;20816;-75
2021/05/04 09:34:10;;;;;;;14.47;13.77;;;10.30;99.90;;;;;;4790141;29;20479;-75
2021/05/04 09:36:42;;;;;;;13.53;12.93;;;10.70;99.90;;;;;;4788709;29;20503;-74
2021/05/04 09:39:11;;;;;;;13.07;12.47;;;11.10;99.90;;;;;;4791518;29;20471;-74
2021/05/04 09:41:38;;;;;;;13.30;12.70;;;11.80;99.90;;;;;;4789045;29;20498;-74
2021/05/04 09:44:05;;;;;;;14.37;13.67;;;12.10;99.90;;;;;;4792222;29;20529;-74
2021/05/04 09:46:45;;;;;;;15.40;14.70;;;11.90;99.90;;;;;;4789456;29;20601;-74
2021/05/04 09:49:29;;;;;;;14.80;14.10;;;11.80;99.90;;;;;;4784901;29;20480;-73
2021/05/04 09:52:29;;;;;;;14.97;14.27;;;11.80;99.90;;;;;;4784498;29;20472;-75
2021/05/04 09:55:05;;;;;;;16.10;15.30;;;11.50;99.90;;;;;;4782980;29;20476;-74
2021/05/04 09:57:40;;;;;;;18.43;17.30;;;11.50;99.90;;;;;;4790159;29;20468;-73
2021/05/04 10:00:10;;;;;;;19.60;18.00;;;11.30;99.90;;;;;;4788146;29;20511;-73
2021/05/04 10:02:37;;;;;;;17.87;16.77;;;11.20;99.90;;;;;;4792567;29;20479;-73
2021/05/04 10:05:05;;;;;;;19.00;17.80;;;11.00;99.90;;;;;;4790107;29;20489;-73
2021/05/04 10:07:32;;;;;;;20.20;18.90;;;10.80;99.90;;;;;;4790441;29;20476;-75
2021/05/04 10:10:01;;;;;;;18.60;17.50;;;10.60;99.90;;;;;;4790614;29;20517;-73
2021/05/04 10:12:29;;;;;;;16.60;15.70;;;10.50;99.90;;;;;;4788179;29;20824;-74
2021/05/04 10:15:00;;;;;;;15.57;14.77;;;10.80;99.90;;;;;;4787905;29;20478;-74
2021/05/04 10:17:31;;;;;;;20.00;15.83;;;10.80;99.90;;;;;;4789074;29;20564;-74
2021/05/04 10:19:58;;;;;;;16.80;15.60;;;11.20;99.90;;;;;;4770026;30;20523;-74
2021/05/04 10:22:24;;;;;;;18.20;16.60;;;11.70;99.90;;;;;;4768009;30;20492;-73
2021/05/04 10:24:52;;;;;;;18.50;16.80;;;12.10;99.90;;;;;;4776064;30;20514;-73
2021/05/04 10:27:20;;;;;;;19.40;18.00;;;12.60;99.90;;;;;;4772083;30;20573;-74
2021/05/04 10:29:52;;;;;;;33.23;18.60;;;12.40;99.90;;;;;;4769500;30;20477;-74
2021/05/04 10:32:52;;;;;;;20.73;18.90;;;12.40;99.90;;;;;;4771758;29;20476;-75
2021/05/04 10:35:38;;;;;;;19.23;17.87;;;12.20;99.90;;;;;;4769024;30;20469;-76
2021/05/04 10:38:06;;;;;;;19.67;18.27;;;12.40;99.90;;;;;;4767871;30;20511;-74
2021/05/04 10:40:34;;;;;;;18.53;17.13;;;12.70;99.90;;;;;;4768665;30;21333;-74
2021/05/04 10:43:01;;;;;;;23.13;16.00;;;12.80;99.90;;;;;;4772591;30;20496;-76
2021/05/04 10:45:42;;;;;;;17.00;15.80;;;12.80;99.90;;;;;;4773622;29;20480;-74
2021/05/04 10:48:09;;;;;;;16.80;15.70;;;13.20;99.90;;;;;;4775075;30;20472;-75
2021/05/04 10:50:50;;;;;;;17.50;15.67;;;13.30;99.90;;;;;;4772301;30;20487;-74
2021/05/04 10:53:18;;;;;;;16.23;14.70;;;12.90;99.90;;;;;;4772780;30;20484;-75
2021/05/04 10:56:10;;;;;;;18.93;15.70;;;12.90;99.90;;;;;;4776973;30;20476;-74
2021/05/04 10:58:50;;;;;;;17.57;16.07;;;13.10;99.90;;;;;;4773321;30;20850;-74
2021/05/04 11:01:18;;;;;;;20.10;16.70;;;13.30;99.90;;;;;;4771557;29;20790;-74
2021/05/04 11:04:03;;;;;;;17.67;16.27;;;13.40;99.90;;;;;;4777392;30;20804;-74
2021/05/04 11:06:57;;;;;;;18.13;16.67;;;13.50;99.90;;;;;;4776047;30;20471;-74
2021/05/04 11:09:23;;;;;;;22.00;20.47;;;13.40;99.90;;;;;;4775197;30;20882;-73
2021/05/04 11:11:51;;;;;;;23.77;21.77;;;12.50;99.90;;;;;;4776982;30;20863;-74
2021/05/04 11:14:24;;;;;;;23.77;21.87;;;11.50;99.90;;;;;;4772122;30;20488;-73
2021/05/04 11:17:17;;;;;;;22.93;20.70;;;11.10;99.90;;;;;;4781550;29;20536;-73
2021/05/04 11:19:45;;;;;;;27.23;18.30;;;11.00;99.90;;;;;;4791954;29;21044;-73
2021/05/04 11:22:23;;;;;;;29.13;18.60;;;11.20;99.90;;;;;;4794702;29;20472;-76
2021/05/04 11:24:51;;;;;;;18.23;16.73;;;11.30;99.90;;;;;;4792367;29;20604;-73
2021/05/04 11:27:22;;;;;;;18.53;17.03;;;11.40;99.90;;;;;;4791667;29;20488;-74
2021/05/04 11:29:51;;;;;;;18.30;16.37;;;11.70;99.90;;;;;;4791500;29;20496;-73
2021/05/04 11:32:20;;;;;;;18.53;15.77;;;12.30;99.90;;;;;;4787589;29;20495;-74
2021/05/04 11:34:53;;;;;;;17.50;16.00;;;12.70;99.90;;;;;;4788003;29;20478;-75
2021/05/04 11:37:36;;;;;;;17.77;16.20;;;13.40;99.90;;;;;;4791044;29;20476;-73
2021/05/04 11:40:06;;;;;;;17.30;16.00;;;13.70;99.90;;;;;;4792487;29;20503;-75
2021/05/04 11:42:35;;;;;;;18.53;16.60;;;14.10;99.90;;;;;;4790943;29;20523;-75
2021/05/04 11:45:07;;;;;;;17.43;16.33;;;13.80;99.90;;;;;;4794487;29;21745;-76
2021/05/04 11:47:34;;;;;;;18.57;16.80;;;13.40;99.90;;;;;;4790859;29;20813;-75
2021/05/04 11:50:07;;;;;;;17.33;16.13;;;12.90;99.90;;;;;;4798223;29;20888;-75
2021/05/04 11:52:34;;;;;;;21.13;17.60;;;13.20;99.90;;;;;;4785646;29;20987;-75
2021/05/04 11:55:06;;;;;;;17.37;16.23;;;13.80;99.90;;;;;;4792035;29;20475;-75
2021/05/04 11:57:32;;;;;;;17.37;16.00;;;13.80;99.90;;;;;;4793901;29;20481;-76
2021/05/04 12:00:00;;;;;;;17.27;16.27;;;13.70;99.90;;;;;;4788049;29;20492;-74
2021/05/04 12:02:30;;;;;;;19.00;16.90;;;13.30;99.90;;;;;;4794418;29;20480;-75
2021/05/04 12:04:58;;;;;;;18.13;16.83;;;13.20;99.90;;;;;;4791787;29;20509;-74
2021/05/04 12:07:43;;;;;;;17.20;15.77;;;13.40;99.90;;;;;;4791328;29;20499;-74
2021/05/04 12:10:37;;;;;;;17.37;16.07;;;13.70;99.90;;;;;;4792943;29;20576;-74
2021/05/04 12:13:06;;;;;;;17.67;16.27;;;13.30;99.90;;;;;;4786540;29;20918;-74
2021/05/04 12:15:34;;;;;;;19.27;16.90;;;13.30;99.90;;;;;;4792616;29;20486;-75
2021/05/04 12:18:06;;;;;;;16.43;15.33;;;13.80;99.90;;;;;;4792973;29;20499;-75
2021/05/04 12:20:35;;;;;;;17.70;15.60;;;14.00;99.90;;;;;;4788262;29;20491;-74
2021/05/04 12:23:04;;;;;;;16.80;15.50;;;14.00;99.90;;;;;;4793268;29;20472;-74
2021/05/04 12:25:43;;;;;;;16.97;15.77;;;14.20;99.90;;;;;;4791735;29;20483;-75
2021/05/04 12:28:13;;;;;;;17.07;16.00;;;14.40;99.90;;;;;;4789583;29;20476;-75
2021/05/04 12:30:40;;;;;;;18.40;16.87;;;14.50;99.90;;;;;;4785880;29;20544;-75
2021/05/04 12:33:07;;;;;;;17.63;15.70;;;14.10;99.90;;;;;;4791719;29;20480;-76
2021/05/04 12:35:41;;;;;;;16.93;15.90;;;13.80;99.90;;;;;;4790861;29;20483;-76
2021/05/04 12:38:12;;;;;;;17.90;16.60;;;13.50;99.90;;;;;;4789242;29;20528;-75
2021/05/04 12:40:41;;;;;;;17.97;16.40;;;13.70;99.90;;;;;;4794718;29;20514;-75